Time;durP1;ratioP1;P1;durP2;ratioP2;P2;SDS_P1;SDS_P2;PMS_P1;PMS_P2;Temp;Humidity;BMP_temperature;BMP_pressure;BME280_temperature;BME280_humidity;BME280_pressure;Samples;Min_cycle;Max_cycle;Signal;HPM_P1;HPM_P2
2020/12/19 00:00:19;;;;;;;10.43;6.90;;;;;;;;;;5115013;28;20474;-71
2020/12/19 00:02:45;;;;;;;10.45;6.63;;;;;;;;;;5115030;28;20026;-82
2020/12/19 00:05:11;;;;;;;10.52;6.60;;;;;;;;;;5116184;28;20024;-80
2020/12/19 00:07:37;;;;;;;12.50;6.97;;;;;;;;;;5114919;28;20106;-81
2020/12/19 00:10:04;;;;;;;11.07;6.68;;;;;;;;;;5116028;28;20031;-80
2020/12/19 00:12:30;;;;;;;13.38;7.28;;;;;;;;;;5116134;28;20023;-80
2020/12/19 00:14:57;;;;;;;11.10;7.03;;;;;;;;;;5114916;28;20023;-77
2020/12/19 00:17:23;;;;;;;11.60;7.07;;;;;;;;;;5115837;28;20024;-70
2020/12/19 00:19:49;;;;;;;12.38;6.97;;;;;;;;;;5115924;28;20019;-76
2020/12/19 00:22:15;;;;;;;11.52;7.05;;;;;;;;;;5115770;28;20024;-72
2020/12/19 00:24:41;;;;;;;12.25;7.55;;;;;;;;;;5114624;28;20476;-80
2020/12/19 00:27:10;;;;;;;12.23;7.30;;;;;;;;;;5115615;28;20474;-70
2020/12/19 00:29:38;;;;;;;12.25;7.63;;;;;;;;;;5115477;28;20113;-75
2020/12/19 00:32:04;;;;;;;11.77;7.72;;;;;;;;;;5114348;28;20022;-69
2020/12/19 00:34:30;;;;;;;12.63;7.25;;;;;;;;;;5114357;28;20024;-84
2020/12/19 00:36:56;;;;;;;10.48;7.03;;;;;;;;;;5115479;28;20027;-70
2020/12/19 00:39:22;;;;;;;11.43;7.32;;;;;;;;;;5114055;28;20051;-75
2020/12/19 00:41:48;;;;;;;11.73;6.88;;;;;;;;;;5115411;28;20020;-71
2020/12/19 00:44:14;;;;;;;11.38;7.72;;;;;;;;;;5114009;28;20020;-70
2020/12/19 00:46:40;;;;;;;14.90;7.55;;;;;;;;;;5115050;28;20020;-70
2020/12/19 00:49:06;;;;;;;12.88;8.05;;;;;;;;;;5115027;28;20074;-70
2020/12/19 00:51:32;;;;;;;16.30;7.72;;;;;;;;;;5115271;28;20065;-70
2020/12/19 00:53:58;;;;;;;11.40;7.45;;;;;;;;;;5115404;28;20034;-71
2020/12/19 00:56:25;;;;;;;11.63;7.35;;;;;;;;;;5115136;28;20020;-71
2020/12/19 00:58:51;;;;;;;12.82;7.65;;;;;;;;;;5113881;28;20026;-71
2020/12/19 01:01:19;;;;;;;12.80;8.02;;;;;;;;;;5115159;28;20024;-73
2020/12/19 01:03:45;;;;;;;12.70;7.75;;;;;;;;;;5115121;28;20022;-72
2020/12/19 01:06:18;;;;;;;11.73;7.43;;;;;;;;;;5115074;28;20111;-78
2020/12/19 01:08:45;;;;;;;12.82;7.72;;;;;;;;;;5114952;28;20026;-70
2020/12/19 01:11:24;;;;;;;13.43;8.10;;;;;;;;;;5113653;28;20042;-71
2020/12/19 01:13:50;;;;;;;12.82;8.00;;;;;;;;;;5114933;28;20020;-71
2020/12/19 01:16:17;;;;;;;11.30;7.43;;;;;;;;;;5113587;28;20030;-70
2020/12/19 01:18:44;;;;;;;13.95;7.97;;;;;;;;;;5113534;28;20016;-70
2020/12/19 01:21:14;;;;;;;137.57;10.82;;;;;;;;;;5113464;28;20485;-72
2020/12/19 01:23:40;;;;;;;17.35;7.90;;;;;;;;;;5113260;28;20020;-72
2020/12/19 01:26:06;;;;;;;12.25;7.75;;;;;;;;;;5113178;28;20024;-73
2020/12/19 01:28:33;;;;;;;12.57;7.93;;;;;;;;;;5114549;28;20039;-74
2020/12/19 01:31:06;;;;;;;13.90;7.68;;;;;;;;;;5114659;28;20033;-73
2020/12/19 01:33:32;;;;;;;14.15;8.27;;;;;;;;;;5114433;28;20023;-73
2020/12/19 01:35:58;;;;;;;13.27;7.40;;;;;;;;;;5107318;28;20030;-73
2020/12/19 01:38:25;;;;;;;13.38;8.00;;;;;;;;;;5114380;28;20062;-73
2020/12/19 01:40:52;;;;;;;10.95;7.15;;;;;;;;;;5114394;28;20391;-73
2020/12/19 01:43:18;;;;;;;13.55;7.97;;;;;;;;;;5114360;28;20024;-72
2020/12/19 01:45:44;;;;;;;12.88;7.43;;;;;;;;;;5114227;28;20550;-72
2020/12/19 01:48:20;;;;;;;15.43;8.25;;;;;;;;;;5113909;28;20389;-75
2020/12/19 01:50:47;;;;;;;15.07;8.80;;;;;;;;;;5114179;28;20027;-75
2020/12/19 01:53:14;;;;;;;13.52;7.75;;;;;;;;;;5114233;28;20020;-73
2020/12/19 01:55:40;;;;;;;12.60;7.43;;;;;;;;;;5112925;28;20077;-72
2020/12/19 01:58:07;;;;;;;14.55;7.65;;;;;;;;;;5113533;28;20024;-72
2020/12/19 02:00:36;;;;;;;14.95;8.02;;;;;;;;;;5114242;28;20534;-69
2020/12/19 02:03:02;;;;;;;15.68;8.75;;;;;;;;;;5113950;28;20414;-80
2020/12/19 02:05:29;;;;;;;13.38;8.57;;;;;;;;;;5113000;28;20027;-70
2020/12/19 02:07:55;;;;;;;13.32;8.00;;;;;;;;;;5113908;28;20028;-84
2020/12/19 02:10:21;;;;;;;13.45;8.68;;;;;;;;;;5113857;28;20023;-71
2020/12/19 02:12:47;;;;;;;12.68;7.88;;;;;;;;;;5112386;28;20023;-70
2020/12/19 02:15:13;;;;;;;14.00;8.77;;;;;;;;;;5113434;28;20072;-70
2020/12/19 02:17:39;;;;;;;18.75;8.95;;;;;;;;;;5112803;28;20016;-76
2020/12/19 02:20:05;;;;;;;14.93;9.25;;;;;;;;;;5112735;28;20019;-73
2020/12/19 02:22:31;;;;;;;13.10;8.73;;;;;;;;;;5112847;28;20098;-79
2020/12/19 02:24:57;;;;;;;14.43;9.65;;;;;;;;;;5112908;28;20046;-73
2020/12/19 02:27:23;;;;;;;13.90;9.00;;;;;;;;;;5111855;28;20366;-72
2020/12/19 02:29:49;;;;;;;16.20;8.63;;;;;;;;;;5112868;28;20442;-79
2020/12/19 02:32:15;;;;;;;16.20;10.00;;;;;;;;;;5112899;28;20016;-69
2020/12/19 02:34:41;;;;;;;17.73;10.30;;;;;;;;;;5111669;28;20024;-69
2020/12/19 02:37:07;;;;;;;16.05;10.50;;;;;;;;;;5112763;28;20496;-77
2020/12/19 02:39:33;;;;;;;15.85;10.80;;;;;;;;;;5112871;28;20046;-81
2020/12/19 02:41:59;;;;;;;16.05;10.02;;;;;;;;;;5112861;28;20039;-68
2020/12/19 02:44:25;;;;;;;17.42;10.07;;;;;;;;;;5113020;28;20042;-68
2020/12/19 02:46:51;;;;;;;15.80;10.45;;;;;;;;;;5113168;28;20054;-78
2020/12/19 02:49:17;;;;;;;14.75;9.85;;;;;;;;;;5112943;28;20043;-68
2020/12/19 02:51:44;;;;;;;16.77;10.27;;;;;;;;;;5113295;28;20095;-71
2020/12/19 02:54:10;;;;;;;16.42;10.57;;;;;;;;;;5113280;28;20028;-70
2020/12/19 02:56:36;;;;;;;15.57;10.60;;;;;;;;;;5111874;28;20482;-68
2020/12/19 02:59:02;;;;;;;15.02;9.05;;;;;;;;;;5113061;28;20538;-68
2020/12/19 03:01:32;;;;;;;14.95;9.95;;;;;;;;;;5113255;28;20022;-68
2020/12/19 03:03:58;;;;;;;16.55;10.05;;;;;;;;;;5113225;28;20054;-68
2020/12/19 03:06:25;;;;;;;15.95;9.38;;;;;;;;;;5112010;28;20020;-73
2020/12/19 03:08:51;;;;;;;13.25;8.63;;;;;;;;;;5113548;28;20023;-70
2020/12/19 03:11:17;;;;;;;13.77;8.95;;;;;;;;;;5117351;28;20020;-71
2020/12/19 03:13:43;;;;;;;14.70;8.98;;;;;;;;;;5115878;28;20024;-73
2020/12/19 03:16:09;;;;;;;14.32;8.52;;;;;;;;;;5117079;28;20018;-71
2020/12/19 03:18:35;;;;;;;14.27;8.60;;;;;;;;;;5117069;28;20023;-71
2020/12/19 03:21:01;;;;;;;13.82;8.48;;;;;;;;;;5115997;28;20549;-70
2020/12/19 03:23:27;;;;;;;13.07;8.48;;;;;;;;;;5117095;28;20027;-74
2020/12/19 03:25:53;;;;;;;14.07;8.55;;;;;;;;;;5117016;28;20015;-70
2020/12/19 03:28:20;;;;;;;13.85;7.88;;;;;;;;;;5116788;28;20157;-70
2020/12/19 03:30:46;;;;;;;12.25;7.57;;;;;;;;;;5116805;28;20027;-71
2020/12/19 03:33:12;;;;;;;11.98;7.78;;;;;;;;;;5116812;28;20530;-71
2020/12/19 03:35:40;;;;;;;20.83;8.90;;;;;;;;;;5116883;28;20023;-68
2020/12/19 03:38:06;;;;;;;14.52;7.40;;;;;;;;;;5116618;28;20019;-74
2020/12/19 03:40:32;;;;;;;15.88;7.70;;;;;;;;;;5115417;28;20019;-69
2020/12/19 03:42:58;;;;;;;12.27;7.93;;;;;;;;;;5116729;28;20023;-69
2020/12/19 03:45:24;;;;;;;12.52;7.22;;;;;;;;;;5115321;28;20114;-69
2020/12/19 03:47:50;;;;;;;11.60;7.60;;;;;;;;;;5116761;28;20023;-69
2020/12/19 03:50:16;;;;;;;12.25;7.72;;;;;;;;;;5116428;28;20043;-77
2020/12/19 03:52:42;;;;;;;11.55;7.30;;;;;;;;;;5116629;28;20019;-70
2020/12/19 03:55:08;;;;;;;10.45;6.90;;;;;;;;;;5116513;28;20099;-69
2020/12/19 03:57:34;;;;;;;22.58;8.02;;;;;;;;;;5115091;28;20024;-69
2020/12/19 04:00:00;;;;;;;14.68;7.93;;;;;;;;;;5115171;28;20016;-66
2020/12/19 04:02:26;;;;;;;13.40;8.25;;;;;;;;;;5116227;28;20052;-68
2020/12/19 04:04:52;;;;;;;12.73;8.07;;;;;;;;;;5114944;28;20016;-77
2020/12/19 04:07:18;;;;;;;12.43;7.22;;;;;;;;;;5116219;28;20019;-76
2020/12/19 04:09:44;;;;;;;12.57;7.18;;;;;;;;;;5116233;28;20036;-72
2020/12/19 04:12:11;;;;;;;13.85;7.88;;;;;;;;;;5116139;28;20019;-79
2020/12/19 04:14:37;;;;;;;12.07;6.88;;;;;;;;;;5116201;28;20105;-71
2020/12/19 04:17:08;;;;;;;10.93;7.07;;;;;;;;;;5114662;28;20578;-72
2020/12/19 04:19:34;;;;;;;11.95;7.45;;;;;;;;;;5116183;28;20055;-72
2020/12/19 04:22:00;;;;;;;12.18;7.63;;;;;;;;;;5115217;28;20470;-72
2020/12/19 04:24:26;;;;;;;11.43;7.30;;;;;;;;;;5115753;28;20070;-78
2020/12/19 04:26:52;;;;;;;11.20;7.13;;;;;;;;;;5114355;28;20026;-71
2020/12/19 04:29:19;;;;;;;11.98;7.13;;;;;;;;;;5115666;28;20036;-71
2020/12/19 04:31:45;;;;;;;11.43;6.97;;;;;;;;;;5115870;28;20020;-71
2020/12/19 04:34:11;;;;;;;12.55;7.18;;;;;;;;;;5115712;28;20031;-72
2020/12/19 04:36:37;;;;;;;12.10;6.78;;;;;;;;;;5114369;28;20026;-68
2020/12/19 04:39:04;;;;;;;12.45;6.88;;;;;;;;;;5115746;28;20032;-68
2020/12/19 04:41:30;;;;;;;11.20;6.85;;;;;;;;;;5114151;28;20030;-69
2020/12/19 04:43:56;;;;;;;11.65;7.57;;;;;;;;;;5115397;28;20537;-80
2020/12/19 04:46:22;;;;;;;10.80;6.70;;;;;;;;;;5115457;28;20062;-69
2020/12/19 04:48:48;;;;;;;11.52;7.25;;;;;;;;;;5114996;28;20079;-68
2020/12/19 04:51:15;;;;;;;11.85;7.55;;;;;;;;;;5115135;28;20119;-72
2020/12/19 04:53:41;;;;;;;11.60;7.22;;;;;;;;;;5115454;28;20027;-70
2020/12/19 04:56:08;;;;;;;12.52;7.30;;;;;;;;;;5115341;28;20027;-69
2020/12/19 04:58:34;;;;;;;11.90;7.07;;;;;;;;;;5114068;28;20566;-70
2020/12/19 05:01:01;;;;;;;11.43;6.95;;;;;;;;;;5115276;28;20051;-69
2020/12/19 05:03:27;;;;;;;12.25;7.90;;;;;;;;;;5115083;28;20356;-68
2020/12/19 05:05:53;;;;;;;12.18;7.68;;;;;;;;;;5115082;28;20036;-69
2020/12/19 05:08:19;;;;;;;12.57;8.10;;;;;;;;;;5115006;28;20019;-69
2020/12/19 05:10:45;;;;;;;11.38;7.07;;;;;;;;;;5115099;28;20027;-73
2020/12/19 05:13:11;;;;;;;12.25;7.70;;;;;;;;;;5108093;28;20374;-70
2020/12/19 05:15:37;;;;;;;11.77;6.90;;;;;;;;;;5114436;28;20032;-72
2020/12/19 05:18:03;;;;;;;10.88;7.32;;;;;;;;;;5114232;28;20020;-70
2020/12/19 05:20:30;;;;;;;12.35;7.50;;;;;;;;;;5114168;28;20141;-70
2020/12/19 05:22:57;;;;;;;11.10;7.05;;;;;;;;;;5114065;28;20079;-71
2020/12/19 05:25:25;;;;;;;11.27;7.20;;;;;;;;;;5114263;28;20410;-70
2020/12/19 05:27:51;;;;;;;16.77;6.85;;;;;;;;;;5114041;28;20470;-78
2020/12/19 05:30:18;;;;;;;13.55;6.70;;;;;;;;;;5112644;28;20036;-70
2020/12/19 05:32:46;;;;;;;11.70;7.10;;;;;;;;;;5113513;28;20023;-70
2020/12/19 05:35:14;;;;;;;10.32;7.43;;;;;;;;;;5113284;28;20072;-70
2020/12/19 05:37:40;;;;;;;12.88;7.65;;;;;;;;;;5113175;28;20015;-71
2020/12/19 05:40:07;;;;;;;12.30;7.60;;;;;;;;;;5113272;28;20047;-71
2020/12/19 05:42:33;;;;;;;9.73;6.57;;;;;;;;;;5114441;28;20051;-72
2020/12/19 05:44:59;;;;;;;12.15;6.95;;;;;;;;;;5113124;28;20019;-76
2020/12/19 05:47:25;;;;;;;14.48;7.40;;;;;;;;;;5114278;28;20096;-69
2020/12/19 05:49:51;;;;;;;12.27;7.68;;;;;;;;;;5113963;28;20104;-81
2020/12/19 05:52:23;;;;;;;12.50;7.93;;;;;;;;;;5114031;28;20467;-68
2020/12/19 05:54:49;;;;;;;12.05;7.45;;;;;;;;;;5112461;28;20027;-69
2020/12/19 05:57:16;;;;;;;12.40;7.78;;;;;;;;;;5113471;28;20020;-69
2020/12/19 05:59:44;;;;;;;11.07;7.20;;;;;;;;;;5113538;28;20027;-76
2020/12/19 06:02:10;;;;;;;11.88;7.55;;;;;;;;;;5113400;28;20050;-69
2020/12/19 06:04:39;;;;;;;12.18;8.27;;;;;;;;;;5113053;28;20024;-68
2020/12/19 06:07:05;;;;;;;13.23;8.32;;;;;;;;;;5111851;28;20061;-69
2020/12/19 06:09:32;;;;;;;13.95;7.95;;;;;;;;;;5112005;28;20028;-69
2020/12/19 06:12:10;;;;;;;13.38;8.45;;;;;;;;;;5113167;28;20457;-69
2020/12/19 06:14:39;;;;;;;12.57;8.20;;;;;;;;;;5111980;28;20116;-71
2020/12/19 06:17:12;;;;;;;13.43;8.07;;;;;;;;;;5111871;28;20126;-69
2020/12/19 06:19:41;;;;;;;14.20;8.38;;;;;;;;;;5113051;28;20023;-69
2020/12/19 06:22:07;;;;;;;12.65;7.80;;;;;;;;;;5111816;28;20063;-77
2020/12/19 06:24:49;;;;;;;17.67;8.38;;;;;;;;;;5113112;28;20027;-70
2020/12/19 06:27:23;;;;;;;19.83;8.93;;;;;;;;;;5113510;28;20020;-71
2020/12/19 06:29:50;;;;;;;14.35;8.93;;;;;;;;;;5113471;28;20073;-73
2020/12/19 06:32:20;;;;;;;16.48;9.82;;;;;;;;;;5112189;28;20016;-71
2020/12/19 06:35:07;;;;;;;17.38;10.30;;;;;;;;;;5112286;28;20030;-69
2020/12/19 06:37:33;;;;;;;15.63;10.05;;;;;;;;;;5113510;28;20442;-70
2020/12/19 06:40:19;;;;;;;14.15;8.68;;;;;;;;;;5113430;28;20517;-75
2020/12/19 06:42:46;;;;;;;15.02;8.77;;;;;;;;;;5113287;28;20145;-70
2020/12/19 06:45:30;;;;;;;14.10;8.93;;;;;;;;;;5112945;28;20064;-71
2020/12/19 06:47:57;;;;;;;13.98;8.45;;;;;;;;;;5112133;28;20039;-74
2020/12/19 06:50:24;;;;;;;13.13;7.28;;;;;;;;;;5113080;28;20486;-63
2020/12/19 06:52:53;;;;;;;19.42;7.10;;;;;;;;;;5113443;28;20420;-65
2020/12/19 06:55:19;;;;;;;13.23;6.72;;;;;;;;;;5113359;28;20027;-65
2020/12/19 06:57:53;;;;;;;13.07;7.10;;;;;;;;;;5113337;28;20103;-69
2020/12/19 07:00:19;;;;;;;11.27;6.35;;;;;;;;;;5113309;28;20023;-64
2020/12/19 07:02:49;;;;;;;10.27;6.50;;;;;;;;;;5113044;28;20027;-69
2020/12/19 07:05:26;;;;;;;11.85;6.95;;;;;;;;;;5112892;28;20104;-62
2020/12/19 07:07:53;;;;;;;13.80;6.78;;;;;;;;;;5104404;28;20532;-66
2020/12/19 07:10:35;;;;;;;10.90;6.50;;;;;;;;;;5091434;28;20036;-75
2020/12/19 07:13:01;;;;;;;10.37;6.60;;;;;;;;;;5105967;28;20019;-64
2020/12/19 07:15:42;;;;;;;10.52;6.25;;;;;;;;;;5112906;28;20740;-67
2020/12/19 07:18:24;;;;;;;8.70;5.15;;;;;;;;;;5112938;28;20019;-65
2020/12/19 07:21:00;;;;;;;10.65;5.35;;;;;;;;;;5112956;28;20053;-68
2020/12/19 07:23:27;;;;;;;12.63;5.45;;;;;;;;;;5113063;28;20016;-68
2020/12/19 07:25:53;;;;;;;6.88;4.53;;;;;;;;;;5093436;28;20062;-64
2020/12/19 07:28:19;;;;;;;8.48;5.18;;;;;;;;;;5092509;28;20025;-71
2020/12/19 07:30:46;;;;;;;7.97;4.93;;;;;;;;;;5092555;28;20034;-66
2020/12/19 07:33:12;;;;;;;6.57;4.45;;;;;;;;;;5092479;28;20016;-68
2020/12/19 07:35:38;;;;;;;7.32;4.85;;;;;;;;;;5091161;28;20020;-71
2020/12/19 07:38:04;;;;;;;7.63;4.68;;;;;;;;;;5092447;28;20020;-65
2020/12/19 07:40:30;;;;;;;8.30;5.15;;;;;;;;;;5091102;28;20112;-65
2020/12/19 07:43:00;;;;;;;9.13;5.93;;;;;;;;;;5092360;28;20052;-69
2020/12/19 07:45:26;;;;;;;9.10;5.47;;;;;;;;;;5092288;28;20028;-65
2020/12/19 07:47:53;;;;;;;9.10;5.20;;;;;;;;;;5092389;28;20103;-66
2020/12/19 07:50:29;;;;;;;9.77;6.18;;;;;;;;;;5092214;28;20105;-66
2020/12/19 07:53:02;;;;;;;8.57;5.50;;;;;;;;;;5092274;28;20046;-65
2020/12/19 07:55:28;;;;;;;10.75;5.22;;;;;;;;;;5092247;28;20103;-65
2020/12/19 07:57:55;;;;;;;9.63;5.90;;;;;;;;;;5095983;28;20024;-67
2020/12/19 08:00:21;;;;;;;9.50;5.32;;;;;;;;;;5097701;28;20023;-64
2020/12/19 08:02:47;;;;;;;8.20;4.95;;;;;;;;;;5115015;28;20116;-66
2020/12/19 08:05:13;;;;;;;10.25;6.18;;;;;;;;;;5116275;28;20016;-65
2020/12/19 08:07:39;;;;;;;8.45;5.20;;;;;;;;;;5116238;28;20482;-66
2020/12/19 08:10:07;;;;;;;8.65;5.55;;;;;;;;;;5114876;28;20063;-66
2020/12/19 08:12:33;;;;;;;7.43;4.85;;;;;;;;;;5116098;28;20500;-65
2020/12/19 08:15:05;;;;;;;8.00;4.78;;;;;;;;;;5114852;28;20024;-64
2020/12/19 08:17:32;;;;;;;9.15;5.35;;;;;;;;;;5116113;28;20016;-65
2020/12/19 08:19:59;;;;;;;8.73;5.10;;;;;;;;;;5115980;28;20023;-67
2020/12/19 08:22:27;;;;;;;9.13;5.80;;;;;;;;;;5115848;28;20024;-66
2020/12/19 08:24:53;;;;;;;13.32;5.13;;;;;;;;;;5115502;28;20059;-64
2020/12/19 08:27:40;;;;;;;8.68;5.07;;;;;;;;;;5115718;28;20020;-63
2020/12/19 08:30:16;;;;;;;7.50;4.65;;;;;;;;;;5115735;28;20028;-64
2020/12/19 08:32:49;;;;;;;7.47;4.60;;;;;;;;;;5115509;28;20513;-64
2020/12/19 08:35:41;;;;;;;11.05;5.32;;;;;;;;;;5115661;28;20012;-73
2020/12/19 08:38:24;;;;;;;7.15;4.68;;;;;;;;;;5109189;28;20189;-65
2020/12/19 08:40:55;;;;;;;8.07;5.22;;;;;;;;;;5115526;28;20023;-72
2020/12/19 08:43:30;;;;;;;9.00;5.28;;;;;;;;;;5115421;28;20340;-65
2020/12/19 08:46:06;;;;;;;7.97;5.45;;;;;;;;;;5115365;28;20027;-64
2020/12/19 08:48:33;;;;;;;8.68;5.10;;;;;;;;;;5115116;28;20047;-64
2020/12/19 08:51:07;;;;;;;7.70;4.82;;;;;;;;;;5114510;28;20430;-63
2020/12/19 08:53:33;;;;;;;7.85;4.90;;;;;;;;;;5114036;28;20016;-65
2020/12/19 08:56:12;;;;;;;8.70;5.32;;;;;;;;;;5115308;28;20096;-64
2020/12/19 08:58:38;;;;;;;7.97;5.55;;;;;;;;;;5114976;27;20019;-62
2020/12/19 09:01:16;;;;;;;11.25;5.65;;;;;;;;;;5112054;28;20025;-63
2020/12/19 09:03:43;;;;;;;8.45;5.32;;;;;;;;;;5111080;28;20035;-63
2020/12/19 09:06:13;;;;;;;8.90;5.22;;;;;;;;;;5105623;28;20043;-63
2020/12/19 09:08:39;;;;;;;12.25;6.05;;;;;;;;;;5092555;28;20058;-64
2020/12/19 09:11:06;;;;;;;8.88;5.40;;;;;;;;;;5092997;28;20471;-64
2020/12/19 09:13:33;;;;;;;8.45;5.20;;;;;;;;;;5093373;28;20429;-64
2020/12/19 09:16:09;;;;;;;9.23;5.32;;;;;;;;;;5094371;28;20467;-63
2020/12/19 09:18:39;;;;;;;10.00;5.88;;;;;;;;;;5094345;28;20036;-63
2020/12/19 09:21:09;;;;;;;8.77;5.85;;;;;;;;;;5094525;28;20023;-63
2020/12/19 09:23:35;;;;;;;9.45;5.70;;;;;;;;;;5093000;28;20140;-64
2020/12/19 09:26:02;;;;;;;16.05;5.75;;;;;;;;;;5093047;28;20031;-64
2020/12/19 09:28:29;;;;;;;9.93;5.97;;;;;;;;;;5093180;28;20099;-64
2020/12/19 09:30:56;;;;;;;9.35;5.57;;;;;;;;;;5093953;28;20020;-67
2020/12/19 09:33:22;;;;;;;13.65;5.63;;;;;;;;;;5094190;28;20027;-64
2020/12/19 09:35:48;;;;;;;10.20;5.60;;;;;;;;;;5094153;28;20108;-64
2020/12/19 09:38:15;;;;;;;8.93;5.72;;;;;;;;;;5093987;28;20028;-63
2020/12/19 09:40:41;;;;;;;11.02;5.80;;;;;;;;;;5094008;28;20387;-66
2020/12/19 09:43:08;;;;;;;9.43;6.03;;;;;;;;;;5094139;28;20069;-64
2020/12/19 09:47:41;;;;;;;11.43;6.28;;;;;;;;;;5131222;27;20842;-74
2020/12/19 09:50:08;;;;;;;12.20;5.75;;;;;;;;;;5131274;28;20378;-75
2020/12/19 09:52:34;;;;;;;141.38;36.67;;;;;;;;;;5130764;28;20015;-75
2020/12/19 09:55:00;;;;;;;95.72;25.27;;;;;;;;;;5113384;28;20107;-72
2020/12/19 09:57:26;;;;;;;52.58;18.33;;;;;;;;;;5116624;28;20196;-74
2020/12/19 09:59:52;;;;;;;54.03;16.25;;;;;;;;;;5131240;28;20027;-73
2020/12/19 10:02:18;;;;;;;48.67;15.02;;;;;;;;;;5130749;28;20016;-74
2020/12/19 10:04:44;;;;;;;41.15;13.45;;;;;;;;;;5130749;28;20099;-75
2020/12/19 10:07:10;;;;;;;37.08;12.95;;;;;;;;;;5111786;28;20032;-76
2020/12/19 10:09:36;;;;;;;49.05;11.15;;;;;;;;;;5113723;27;20027;-76
2020/12/19 10:12:02;;;;;;;28.60;10.38;;;;;;;;;;5112819;28;20469;-77
2020/12/19 10:14:28;;;;;;;30.17;10.20;;;;;;;;;;5111701;28;20204;-77
2020/12/19 10:16:54;;;;;;;28.45;10.15;;;;;;;;;;5113262;27;20027;-74
2020/12/19 10:19:20;;;;;;;31.00;10.40;;;;;;;;;;5132680;27;20015;-74
2020/12/19 10:21:46;;;;;;;29.70;8.77;;;;;;;;;;5140887;27;20023;-76
2020/12/19 10:24:12;;;;;;;25.42;8.85;;;;;;;;;;5143209;27;20022;-73
2020/12/19 10:26:38;;;;;;;26.08;9.20;;;;;;;;;;5114447;27;20027;-74
2020/12/19 10:29:05;;;;;;;23.35;8.55;;;;;;;;;;5146570;27;20020;-72
2020/12/19 10:31:31;;;;;;;20.45;9.40;;;;;;;;;;5137681;27;20122;-73
2020/12/19 10:33:57;;;;;;;22.92;8.75;;;;;;;;;;5120343;28;20060;-75
2020/12/19 10:36:23;;;;;;;19.27;8.43;;;;;;;;;;5123556;27;20027;-75
2020/12/19 10:38:49;;;;;;;19.98;8.25;;;;;;;;;;5114782;27;20155;-77
2020/12/19 10:41:15;;;;;;;23.08;8.05;;;;;;;;;;5150627;27;20023;-73
2020/12/19 10:43:42;;;;;;;17.92;8.43;;;;;;;;;;5135769;27;20060;-73
2020/12/19 10:46:09;;;;;;;18.92;8.18;;;;;;;;;;5112520;28;20043;-73
2020/12/19 10:48:35;;;;;;;14.98;7.82;;;;;;;;;;5114122;28;20019;-75
2020/12/19 10:51:01;;;;;;;17.40;8.07;;;;;;;;;;5134080;27;20473;-76
2020/12/19 10:53:27;;;;;;;21.80;7.97;;;;;;;;;;5129323;27;20527;-73
2020/12/19 10:55:53;;;;;;;19.52;8.48;;;;;;;;;;5128712;27;20016;-73
2020/12/19 10:58:19;;;;;;;16.20;7.97;;;;;;;;;;5133566;27;20034;-75
2020/12/19 11:00:46;;;;;;;18.25;7.40;;;;;;;;;;5119116;27;20027;-73
2020/12/19 11:03:12;;;;;;;17.10;7.97;;;;;;;;;;5131012;27;20470;-76
2020/12/19 11:05:41;;;;;;;18.80;9.02;;;;;;;;;;5127398;27;20398;-74
2020/12/19 11:08:08;;;;;;;20.38;7.95;;;;;;;;;;5128311;27;20489;-73
2020/12/19 11:10:34;;;;;;;18.63;8.15;;;;;;;;;;5131649;27;20031;-75
2020/12/19 11:13:03;;;;;;;14.90;8.35;;;;;;;;;;5118710;27;20088;-72
2020/12/19 11:15:32;;;;;;;16.80;7.65;;;;;;;;;;5128341;27;20043;-80
2020/12/19 11:17:58;;;;;;;12.52;7.10;;;;;;;;;;5126728;27;20094;-80
2020/12/19 11:20:25;;;;;;;12.75;6.88;;;;;;;;;;5102339;28;20026;-73
2020/12/19 11:22:51;;;;;;;11.88;7.25;;;;;;;;;;5113837;27;20027;-79
2020/12/19 11:25:17;;;;;;;14.57;6.68;;;;;;;;;;5119511;27;20530;-78
2020/12/19 11:27:43;;;;;;;13.75;7.65;;;;;;;;;;5113398;27;20470;-78
2020/12/19 11:30:09;;;;;;;13.13;6.65;;;;;;;;;;5122266;27;20019;-77
2020/12/19 11:32:36;;;;;;;13.95;6.75;;;;;;;;;;5131850;27;20055;-76
2020/12/19 11:35:02;;;;;;;12.80;6.78;;;;;;;;;;5098609;27;20019;-76
2020/12/19 11:37:28;;;;;;;11.57;7.20;;;;;;;;;;5129028;27;20019;-73
2020/12/19 11:39:54;;;;;;;16.92;7.22;;;;;;;;;;5124236;27;20024;-76
2020/12/19 11:42:21;;;;;;;14.63;7.38;;;;;;;;;;5109179;27;20096;-74
2020/12/19 11:44:47;;;;;;;11.88;7.05;;;;;;;;;;5129619;27;20470;-75
2020/12/19 11:47:13;;;;;;;15.60;6.28;;;;;;;;;;5092949;28;20579;-74
2020/12/19 11:49:39;;;;;;;14.90;7.60;;;;;;;;;;5093102;28;20523;-75
2020/12/19 11:52:09;;;;;;;14.57;7.43;;;;;;;;;;5092795;28;20070;-75
2020/12/19 11:54:35;;;;;;;15.23;7.85;;;;;;;;;;5085189;28;20016;-76
2020/12/19 11:57:02;;;;;;;12.38;7.28;;;;;;;;;;5093989;28;20020;-75
2020/12/19 11:59:28;;;;;;;11.73;6.07;;;;;;;;;;5088849;28;20474;-73
2020/12/19 12:01:54;;;;;;;12.50;6.72;;;;;;;;;;5075031;28;20051;-75
2020/12/19 12:04:20;;;;;;;10.15;5.90;;;;;;;;;;5089764;28;20471;-76
2020/12/19 12:06:46;;;;;;;14.32;6.57;;;;;;;;;;5093705;28;20119;-76
2020/12/19 12:09:13;;;;;;;10.23;6.00;;;;;;;;;;5092982;28;20020;-74
2020/12/19 12:11:39;;;;;;;10.75;5.80;;;;;;;;;;5094085;28;20479;-76
2020/12/19 12:14:05;;;;;;;11.73;5.72;;;;;;;;;;5093431;28;20463;-77
2020/12/19 12:16:31;;;;;;;9.00;5.25;;;;;;;;;;5088910;28;20024;-73
2020/12/19 12:18:57;;;;;;;9.57;4.82;;;;;;;;;;5092056;28;20074;-75
2020/12/19 12:21:23;;;;;;;9.18;5.10;;;;;;;;;;5093286;28;20024;-76
2020/12/19 12:23:49;;;;;;;13.57;5.30;;;;;;;;;;5092266;28;20017;-76
2020/12/19 12:26:22;;;;;;;9.70;5.32;;;;;;;;;;5091859;28;20161;-76
2020/12/19 12:28:48;;;;;;;11.23;4.90;;;;;;;;;;5088922;28;20379;-77
2020/12/19 12:31:19;;;;;;;9.43;5.32;;;;;;;;;;5053021;28;20147;-76
2020/12/19 12:33:46;;;;;;;11.27;5.20;;;;;;;;;;5062069;28;20017;-75
2020/12/19 12:36:12;;;;;;;10.65;5.35;;;;;;;;;;5079285;28;20032;-75
2020/12/19 12:38:38;;;;;;;9.43;4.95;;;;;;;;;;5091897;28;20020;-74
2020/12/19 12:41:06;;;;;;;8.80;4.90;;;;;;;;;;5093106;28;20024;-74
2020/12/19 12:43:32;;;;;;;8.13;4.43;;;;;;;;;;5091623;28;20024;-73
2020/12/19 12:45:58;;;;;;;7.18;4.32;;;;;;;;;;5098959;28;20494;-75
2020/12/19 12:48:24;;;;;;;10.95;4.05;;;;;;;;;;5128552;27;20030;-74
2020/12/19 12:50:50;;;;;;;10.70;4.60;;;;;;;;;;5095624;27;20016;-74
2020/12/19 12:53:16;;;;;;;7.30;4.30;;;;;;;;;;5109870;28;20518;-75
2020/12/19 12:55:42;;;;;;;9.85;5.43;;;;;;;;;;5122446;27;20091;-76
2020/12/19 12:58:08;;;;;;;15.00;5.60;;;;;;;;;;5102475;28;20020;-75
2020/12/19 13:00:34;;;;;;;16.30;5.90;;;;;;;;;;5129847;27;20455;-74
2020/12/19 13:03:00;;;;;;;18.65;6.80;;;;;;;;;;5098338;27;20029;-74
2020/12/19 13:05:26;;;;;;;13.43;5.88;;;;;;;;;;5126497;27;20539;-75
2020/12/19 13:07:52;;;;;;;13.18;5.90;;;;;;;;;;5116908;27;20027;-75
2020/12/19 13:10:18;;;;;;;14.63;7.00;;;;;;;;;;5112981;28;20016;-76
2020/12/19 13:12:44;;;;;;;21.90;6.10;;;;;;;;;;5097556;28;20034;-78
2020/12/19 13:15:10;;;;;;;14.32;5.90;;;;;;;;;;5095239;28;20051;-85
2020/12/19 13:17:36;;;;;;;29.52;6.88;;;;;;;;;;5115101;28;20424;-83
2020/12/19 13:20:03;;;;;;;16.63;5.93;;;;;;;;;;5096904;28;20139;-85
2020/12/19 13:22:29;;;;;;;14.20;5.72;;;;;;;;;;5103792;28;20470;-76
2020/12/19 13:24:55;;;;;;;15.68;6.28;;;;;;;;;;5097870;28;20475;-77
2020/12/19 13:27:21;;;;;;;23.40;5.68;;;;;;;;;;5099216;28;20034;-78
2020/12/19 13:29:47;;;;;;;13.98;6.10;;;;;;;;;;5102859;28;20016;-79
2020/12/19 13:32:13;;;;;;;16.60;6.32;;;;;;;;;;5112197;28;20020;-81
2020/12/19 13:34:39;;;;;;;15.20;5.70;;;;;;;;;;5111123;28;20038;-78
2020/12/19 13:37:05;;;;;;;12.13;5.88;;;;;;;;;;5111955;28;20024;-77
2020/12/19 13:39:31;;;;;;;14.77;6.20;;;;;;;;;;5112083;27;20543;-77
2020/12/19 13:41:57;;;;;;;16.17;6.05;;;;;;;;;;5106278;27;20105;-77
2020/12/19 13:44:23;;;;;;;10.95;5.68;;;;;;;;;;5094277;28;20041;-78
2020/12/19 13:46:56;;;;;;;13.02;6.05;;;;;;;;;;5106338;28;20068;-78
2020/12/19 13:49:22;;;;;;;13.88;5.15;;;;;;;;;;5115677;28;20020;-76
2020/12/19 13:51:48;;;;;;;14.48;5.18;;;;;;;;;;5093370;28;20032;-76
2020/12/19 13:54:15;;;;;;;13.55;5.22;;;;;;;;;;5111483;28;20023;-79
2020/12/19 13:56:41;;;;;;;11.98;4.95;;;;;;;;;;5111800;28;20094;-80
2020/12/19 13:59:08;;;;;;;10.77;5.53;;;;;;;;;;5113119;28;20087;-76
2020/12/19 14:01:37;;;;;;;9.68;4.53;;;;;;;;;;5094790;28;20069;-76
2020/12/19 14:04:03;;;;;;;11.55;5.55;;;;;;;;;;5113060;28;20042;-76
2020/12/19 14:06:30;;;;;;;12.77;5.78;;;;;;;;;;5094628;28;20110;-76
2020/12/19 14:08:56;;;;;;;10.20;4.90;;;;;;;;;;5113118;28;20031;-76
2020/12/19 14:11:29;;;;;;;13.93;5.25;;;;;;;;;;5112995;28;20072;-76
2020/12/19 14:13:55;;;;;;;13.25;4.55;;;;;;;;;;5094458;28;20024;-76
2020/12/19 14:16:48;;;;;;;9.68;5.28;;;;;;;;;;5093455;28;20188;-76
2020/12/19 14:19:14;;;;;;;11.45;5.88;;;;;;;;;;5110120;28;20032;-76
2020/12/19 14:21:40;;;;;;;10.20;5.10;;;;;;;;;;5094546;28;20488;-77
2020/12/19 14:24:07;;;;;;;8.43;4.72;;;;;;;;;;5112808;28;20090;-77
2020/12/19 14:26:33;;;;;;;11.35;4.90;;;;;;;;;;5094290;28;20035;-76
2020/12/19 14:29:00;;;;;;;11.75;5.95;;;;;;;;;;5109795;28;20020;-76
2020/12/19 14:31:26;;;;;;;8.38;5.10;;;;;;;;;;5092401;28;20023;-76
2020/12/19 14:33:52;;;;;;;9.43;5.15;;;;;;;;;;5077221;28;20107;-77